Portada
METAR-TAF:

METAR-TAF

Aeropuertos :

Aeropuerto de Barcelona-El Prat

Barcelona, España

latitud: 41-17N, longitud: 002-04E, altitud: 4 m

Observación

El informe se hizo hace 27 minutos, a las 18:30 UTC
Viento 15 kt del suroeste
Temperatura 21°C
Humedad 78%
Presión 1025 hPa
Visibilidad 10 km o más
Escasas nubes a una altura de 2200 ft

METAR: LEBL 191830Z 23015KT 9999 FEW022 21/17 Q1025 NOSIG

Hora: 20:57 (18:57 UTC)

Pronóstico

El informe se hizo hace 1 hora y 57 minutos, a las 17:00 UTC
Pronóstico válido del 19 a las 18 UTC al 20 a las 18 UTC
Viento 10 kt del suroeste
Visibilidad 10 km o más
Escasas nubes a una altura de 1500 ft
Probabilidad 30% :
Temporalmente
del 20 a las 08 UTC al 20 a las 11 UTC
Viento 15 kt del suroeste con ráfagas de 25 kt

TAF: LEBL 191700Z 1918/2018 22010KT 9999 FEW015 TX24/2012Z TN20/2006Z PROB30 TEMPO 2008/2011 22015G25KT

Observaciones y pronósticos meteorológicos de más de 4000 aeropuertos (mensajes METAR y TAF).

Los puntos amarillos y rojos representan las estaciones disponibles.

Ponga el ratón en el punto deseado para ver el nombre de la estación.

Haga clic para ver las observaciones y los pronósticos meteorológicos.

Para cambiar el mapa : haga clic en los botones verdes con una cruz de color negro para hacer un zoom, en el botón verde con un guión para alejar o en las flechas verdes para mapas adyacentes.


METAR-TAF: